首页
METAR-TAF:

METAR-TAF

机场 :

貝凱什喬包, 匈牙利

纬度: 46-41-00N, 经度: 021-09-45E, 海拔: 86米

当前天气观测

该预报发布于44分钟前的14:45 UTC
静风
温度 26°C
湿度 79%
气压 1015 hPa
能见度10公里或以上
散云层高于1600英尺, 积雨云.
雷暴

METAR: LHBC 181445Z 00000KT 9999 TS SCT016CB 26/22 Q1015

时间: 17:29 (15:29 UTC)


TAF: 丢失

超过4000个机场的气象观测和天气预报(METAR&TAF报告)。

可查询的气象台以黄色和红色小点在地图上表示。

将鼠标移到小点上方,可查看气象台名称。

然后点击查看天气观测和预报。

如需切换地图:点击带黑十字的绿色按钮放大地图;点击带横线的绿色按钮缩小地图;或者点击绿色箭头查看邻近地区的地图。


METAR-TAF: